createdAt,value
2022-11-29T06:02:01.985Z,6.54
2022-11-29T06:05:08.670Z,6.56
2022-11-29T06:08:09.890Z,6.53
2022-11-29T06:10:51.270Z,6.53
2022-11-29T06:13:45.000Z,6.53
2022-11-29T06:16:46.907Z,6.53
2022-11-29T06:19:48.463Z,6.54
2022-11-29T06:22:25.337Z,6.54
2022-11-29T06:25:21.233Z,6.56
2022-11-29T06:28:12.611Z,6.58
2022-11-29T06:31:03.232Z,6.57
2022-11-29T06:33:51.405Z,6.58
2022-11-29T06:36:24.854Z,6.56
2022-11-29T06:38:51.691Z,6.55
2022-11-29T06:44:14.077Z,6.54
2022-11-29T06:46:47.995Z,6.57
2022-11-29T06:49:27.737Z,6.59
2022-11-29T06:52:09.980Z,6.62
2022-11-29T06:55:09.536Z,6.62
2022-11-29T06:58:12.447Z,6.59
2022-11-29T07:00:54.096Z,6.60
2022-11-29T07:03:32.462Z,6.62
2022-11-29T07:06:21.338Z,6.62
2022-11-29T07:08:52.469Z,6.61
2022-11-29T07:11:19.929Z,6.63
2022-11-29T07:13:46.775Z,6.63
2022-11-29T07:16:35.363Z,6.64
2022-11-29T07:19:30.954Z,6.62
2022-11-29T07:22:49.102Z,6.61
2022-11-29T07:25:38.339Z,6.62
2022-11-29T07:28:23.684Z,6.63
2022-11-29T07:31:18.919Z,6.63
2022-11-29T07:34:03.315Z,6.64
2022-11-29T07:37:21.235Z,6.66
2022-11-29T07:39:50.925Z,6.69
2022-11-29T07:42:26.947Z,6.68
2022-11-29T07:45:25.978Z,6.73
2022-11-29T07:47:52.987Z,6.76
2022-11-29T07:50:21.060Z,6.77
2022-11-29T07:52:48.678Z,6.79
2022-11-29T07:55:19.609Z,6.79
2022-11-29T07:57:47.002Z,6.79
2022-11-29T08:00:15.337Z,6.79
2022-11-29T08:02:42.155Z,6.83
2022-11-29T08:05:10.576Z,6.84
2022-11-29T08:07:38.775Z,6.85
2022-11-29T08:10:09.014Z,6.84
2022-11-29T08:12:35.885Z,6.86
2022-11-29T08:15:02.668Z,6.88
2022-11-29T08:17:29.549Z,6.90
2022-11-29T08:19:59.976Z,6.95
2022-11-29T08:22:29.866Z,6.95
2022-11-29T08:24:56.428Z,6.95
2022-11-29T08:27:23.732Z,6.95
2022-11-29T08:29:50.262Z,6.96
2022-11-29T08:32:17.809Z,6.96
2022-11-29T08:34:47.175Z,6.98
2022-11-29T08:37:14.589Z,6.99
2022-11-29T08:39:41.317Z,7.00
2022-11-29T08:42:08.412Z,7.00
2022-11-29T08:44:34.960Z,7.01
2022-11-29T08:47:20.977Z,7.05
2022-11-29T08:50:02.849Z,7.09
2022-11-29T08:52:54.311Z,7.10
2022-11-29T08:55:24.070Z,7.14
2022-11-29T08:57:51.239Z,7.17
2022-11-29T09:00:19.605Z,7.18
2022-11-29T09:02:46.187Z,7.20
2022-11-29T09:05:13.425Z,7.21
2022-11-29T09:07:41.026Z,7.23
2022-11-29T09:10:08.845Z,7.29
2022-11-29T09:12:37.363Z,7.35
2022-11-29T09:15:06.782Z,7.38
2022-11-29T09:17:33.807Z,7.43
2022-11-29T09:20:00.466Z,7.46
2022-11-29T09:22:27.649Z,7.50
2022-11-29T09:24:54.971Z,7.53
2022-11-29T09:27:22.140Z,7.52
2022-11-29T09:29:48.726Z,7.52
2022-11-29T09:32:15.631Z,7.52
2022-11-29T09:34:42.458Z,7.54
2022-11-29T09:37:09.798Z,7.57
2022-11-29T09:39:36.330Z,7.59
2022-11-29T09:42:23.759Z,7.63
2022-11-29T09:45:04.033Z,7.62
2022-11-29T09:47:49.527Z,7.60
2022-11-29T09:50:33.634Z,7.61
2022-11-29T09:53:38.995Z,7.63
2022-11-29T09:56:22.337Z,7.66
2022-11-29T09:59:01.818Z,7.66
2022-11-29T10:01:34.642Z,7.65
2022-11-29T10:04:05.259Z,7.64
2022-11-29T10:06:48.739Z,7.66
2022-11-29T10:09:22.740Z,7.68
2022-11-29T10:12:11.763Z,7.70
2022-11-29T10:14:47.879Z,7.72
2022-11-29T10:17:32.779Z,7.73
2022-11-29T10:20:17.239Z,7.73
2022-11-29T10:22:49.558Z,7.73
2022-11-29T10:25:23.174Z,7.74
2022-11-29T10:27:49.833Z,7.78
2022-11-29T10:30:17.888Z,7.78
2022-11-29T10:32:47.328Z,7.79
2022-11-29T10:35:15.454Z,7.80
2022-11-29T10:37:56.381Z,7.82
2022-11-29T10:40:35.446Z,7.86
2022-11-29T10:43:02.894Z,7.85
2022-11-29T10:45:46.121Z,7.83
2022-11-29T10:48:16.812Z,7.87
2022-11-29T10:50:46.058Z,7.88
2022-11-29T10:53:14.802Z,7.88
2022-11-29T10:56:16.394Z,7.90
2022-11-29T10:59:05.055Z,7.92
2022-11-29T11:01:37.046Z,7.96
2022-11-29T11:04:07.372Z,7.99
2022-11-29T11:06:45.446Z,8.03
2022-11-29T11:09:22.282Z,8.02
2022-11-29T11:11:55.158Z,8.01
2022-11-29T11:14:38.671Z,7.99
2022-11-29T11:17:16.178Z,8.01
2022-11-29T11:19:53.546Z,8.02
2022-11-29T11:22:23.279Z,8.06
2022-11-29T11:25:07.369Z,8.06
2022-11-29T11:27:40.038Z,8.10
2022-11-29T11:30:18.636Z,8.11
2022-11-29T11:33:08.737Z,8.09
2022-11-29T11:35:37.491Z,8.10
2022-11-29T11:38:04.179Z,8.15
2022-11-29T11:40:31.270Z,8.19
2022-11-29T11:43:01.570Z,8.23
2022-11-29T11:45:32.957Z,8.25
2022-11-29T11:48:04.587Z,8.28
2022-11-29T11:50:50.225Z,8.27
2022-11-29T11:53:28.935Z,8.28
2022-11-29T11:56:14.923Z,8.31
2022-11-29T11:58:44.425Z,8.35
2022-11-29T12:01:25.430Z,8.39
2022-11-29T12:04:03.449Z,8.41
2022-11-29T12:06:43.438Z,8.44
2022-11-29T12:09:32.441Z,8.48
2022-11-29T12:12:00.705Z,8.50
2022-11-29T12:14:41.478Z,8.53
2022-11-29T12:17:34.530Z,8.51
2022-11-29T12:20:39.555Z,8.51
2022-11-29T12:23:12.941Z,8.53
2022-11-29T12:25:47.124Z,8.57
2022-11-29T12:28:20.274Z,8.55
2022-11-29T12:31:06.224Z,8.58
2022-11-29T12:34:00.069Z,8.60
2022-11-29T12:36:54.800Z,8.63
2022-11-29T12:39:37.491Z,8.64
2022-11-29T12:42:36.476Z,8.63
2022-11-29T12:45:23.232Z,8.63
2022-11-29T12:48:15.169Z,8.60
2022-11-29T12:51:12.577Z,8.54
2022-11-29T12:54:11.598Z,8.52
2022-11-29T12:56:59.876Z,8.51
2022-11-29T13:00:10.933Z,8.51
2022-11-29T13:02:49.984Z,8.50
2022-11-29T13:05:23.373Z,8.51
2022-11-29T13:08:05.472Z,8.50
2022-11-29T13:10:34.985Z,8.46
2022-11-29T13:13:15.722Z,8.45
2022-11-29T13:15:54.663Z,8.44
2022-11-29T13:18:34.576Z,8.44
2022-11-29T13:21:15.465Z,8.40
2022-11-29T13:26:41.964Z,8.38
2022-11-29T13:29:16.090Z,8.39
2022-11-29T13:31:44.022Z,8.38
2022-11-29T13:34:41.484Z,8.34
2022-11-29T13:37:19.236Z,8.29
2022-11-29T13:40:24.494Z,8.30
2022-11-29T13:43:17.774Z,8.31
2022-11-29T13:46:04.651Z,8.32
2022-11-29T13:48:47.954Z,8.34
2022-11-29T13:51:34.304Z,8.33
2022-11-29T13:54:05.194Z,8.34
2022-11-29T13:56:42.705Z,8.32
2022-11-29T13:59:18.798Z,8.33
2022-11-29T14:01:50.209Z,8.34
2022-11-29T14:04:25.969Z,8.35
2022-11-29T14:07:19.951Z,8.38
2022-11-29T14:10:03.257Z,8.37
2022-11-29T14:12:39.767Z,8.38
2022-11-29T14:15:20.903Z,8.37
2022-11-29T14:17:58.229Z,8.32
2022-11-29T14:20:33.596Z,8.31
2022-11-29T14:23:06.909Z,8.37
2022-11-29T14:25:51.679Z,8.33
2022-11-29T14:28:22.545Z,8.32
2022-11-29T14:30:53.462Z,8.31
2022-11-29T14:33:46.785Z,8.32
2022-11-29T14:36:19.215Z,8.33
2022-11-29T14:39:02.346Z,8.34
2022-11-29T14:41:38.105Z,8.37
2022-11-29T14:44:28.321Z,8.37
2022-11-29T14:47:02.266Z,8.38
2022-11-29T14:49:30.213Z,8.34
2022-11-29T14:52:28.731Z,8.32
2022-11-29T14:54:58.299Z,8.33
2022-11-29T14:57:47.134Z,8.31
2022-11-29T15:00:19.550Z,8.29
2022-11-29T15:03:10.086Z,8.27
2022-11-29T15:05:56.526Z,8.29
2022-11-29T15:08:33.671Z,8.31
2022-11-29T15:11:13.696Z,8.32
2022-11-29T15:13:54.724Z,8.32
2022-11-29T15:16:27.061Z,8.32
2022-11-29T15:19:31.562Z,8.27
2022-11-29T15:22:14.196Z,8.28
2022-11-29T15:24:51.951Z,8.27
2022-11-29T15:27:18.991Z,8.28
2022-11-29T15:29:48.553Z,8.25
2022-11-29T15:32:22.466Z,8.26
2022-11-29T15:34:51.812Z,8.21
2022-11-29T15:37:39.065Z,8.21
2022-11-29T15:40:18.072Z,8.19
2022-11-29T15:42:48.723Z,8.18
2022-11-29T15:45:24.698Z,8.18
2022-11-29T15:47:52.409Z,8.18
2022-11-29T15:50:33.315Z,8.16
2022-11-29T15:53:06.066Z,8.12
2022-11-29T15:55:33.617Z,8.10
2022-11-29T15:58:08.548Z,8.13
2022-11-29T16:00:36.299Z,8.11
2022-11-29T16:03:05.450Z,8.10
2022-11-29T16:05:37.562Z,8.08
2022-11-29T16:08:15.126Z,8.08
2022-11-29T16:10:47.374Z,8.07
2022-11-29T16:13:35.496Z,8.03
2022-11-29T16:16:22.456Z,8.04
2022-11-29T16:18:50.875Z,8.08
2022-11-29T16:21:32.158Z,8.10
2022-11-29T16:24:12.477Z,8.09
2022-11-29T16:26:43.303Z,8.04
2022-11-29T16:29:27.597Z,8.04
2022-11-29T16:31:54.674Z,8.02
2022-11-29T16:34:30.898Z,8.02
2022-11-29T16:37:07.042Z,8.01
2022-11-29T16:39:37.771Z,8.01
2022-11-29T16:42:07.420Z,8.00
2022-11-29T16:44:40.685Z,7.96
2022-11-29T16:47:21.912Z,7.95
2022-11-29T16:50:07.266Z,7.96
2022-11-29T16:52:34.380Z,7.99
2022-11-29T16:55:01.367Z,8.01
2022-11-29T16:57:28.837Z,7.93
2022-11-29T16:59:56.050Z,7.89
2022-11-29T17:02:22.693Z,7.92
2022-11-29T17:04:51.489Z,7.94
2022-11-29T17:07:26.311Z,7.94
2022-11-29T17:09:53.807Z,7.94
2022-11-29T17:12:20.331Z,7.89
2022-11-29T17:14:47.742Z,7.88
2022-11-29T17:17:16.072Z,7.87
2022-11-29T17:19:43.257Z,7.86
2022-11-29T17:22:09.865Z,7.88
2022-11-29T17:24:41.173Z,7.87
2022-11-29T17:27:11.416Z,7.87
2022-11-29T17:29:38.284Z,7.86
2022-11-29T17:32:05.675Z,7.86
2022-11-29T17:34:33.287Z,7.88
2022-11-29T17:37:01.038Z,7.85
2022-11-29T17:39:27.677Z,7.87
2022-11-29T17:41:54.870Z,7.88
2022-11-29T17:44:21.437Z,7.87
2022-11-29T17:46:48.676Z,7.88
2022-11-29T17:49:15.286Z,7.87
2022-11-29T17:51:57.701Z,7.85
2022-11-29T17:54:24.602Z,7.84
2022-11-29T17:56:52.202Z,7.84
2022-11-29T17:59:19.094Z,7.85
2022-11-29T18:01:47.551Z,7.83
2022-11-29T18:04:14.686Z,7.86
2022-11-29T18:06:42.011Z,7.85
2022-11-29T18:09:10.553Z,7.85
2022-11-29T18:11:47.515Z,7.83
2022-11-29T18:14:23.218Z,7.82
2022-11-29T18:16:51.079Z,7.81
2022-11-29T18:19:20.003Z,7.81
2022-11-29T18:21:48.121Z,7.83
2022-11-29T18:24:15.037Z,7.82
2022-11-29T18:26:42.307Z,7.81
2022-11-29T18:29:09.557Z,7.82
2022-11-29T18:31:38.852Z,7.83
2022-11-29T18:34:09.255Z,7.85
2022-11-29T18:36:38.772Z,7.82
2022-11-29T18:39:10.550Z,7.84
2022-11-29T18:41:38.289Z,7.86
2022-11-29T18:44:07.704Z,7.87
2022-11-29T18:46:37.445Z,7.85
2022-11-29T18:49:05.037Z,7.85
2022-11-29T18:51:32.139Z,7.87
2022-11-29T18:53:59.253Z,7.86
2022-11-29T18:56:28.744Z,7.87
2022-11-29T18:58:59.716Z,7.85
2022-11-29T19:01:29.051Z,7.84
2022-11-29T19:03:58.381Z,7.87
2022-11-29T19:06:35.606Z,7.87
2022-11-29T19:09:06.981Z,7.87
2022-11-29T19:11:34.662Z,7.86
2022-11-29T19:14:03.921Z,7.88
2022-11-29T19:16:33.667Z,7.89
2022-11-29T19:19:01.179Z,7.90
2022-11-29T19:21:32.158Z,7.92
2022-11-29T19:24:01.087Z,7.90
2022-11-29T19:26:30.051Z,7.89
2022-11-29T19:28:57.264Z,7.90
2022-11-29T19:31:25.422Z,7.90
2022-11-29T19:33:52.679Z,7.85
2022-11-29T19:36:24.216Z,7.84
2022-11-29T19:38:53.777Z,7.86
2022-11-29T19:41:30.078Z,7.86
2022-11-29T19:43:58.908Z,7.85
2022-11-29T19:46:31.893Z,7.87
2022-11-29T19:48:59.907Z,7.90
2022-11-29T19:51:28.675Z,7.89
2022-11-29T19:54:00.723Z,7.93
2022-11-29T19:56:31.047Z,7.93
2022-11-29T19:58:59.645Z,7.93
2022-11-29T20:01:37.730Z,7.96
2022-11-29T20:04:07.462Z,7.95
2022-11-29T20:06:34.858Z,7.96
2022-11-29T20:09:02.136Z,7.97
2022-11-29T20:11:29.864Z,7.97
2022-11-29T20:13:59.129Z,7.99
2022-11-29T20:16:27.299Z,7.98
2022-11-29T20:18:54.659Z,7.93
2022-11-29T20:21:25.745Z,7.94
2022-11-29T20:24:03.379Z,7.93
2022-11-29T20:26:32.520Z,7.94
2022-11-29T20:28:59.781Z,7.93
2022-11-29T20:31:27.045Z,7.95
2022-11-29T20:33:57.377Z,7.97
2022-11-29T20:36:30.603Z,7.95
2022-11-29T20:39:24.761Z,7.95
2022-11-29T20:42:28.861Z,7.93
2022-11-29T20:44:58.687Z,7.89
2022-11-29T20:47:53.521Z,7.92
2022-11-29T20:50:23.987Z,7.94
2022-11-29T20:53:08.879Z,7.96
2022-11-29T20:55:44.887Z,7.92
2022-11-29T20:58:13.348Z,7.89
2022-11-29T21:00:40.343Z,7.94
2022-11-29T21:03:06.954Z,7.92
2022-11-29T21:05:33.820Z,7.90
2022-11-29T21:08:01.911Z,7.90
2022-11-29T21:10:28.499Z,7.89
2022-11-29T21:12:56.713Z,7.88
2022-11-29T21:15:23.552Z,7.88
2022-11-29T21:17:51.136Z,7.88
2022-11-29T21:20:21.775Z,7.85
2022-11-29T21:23:01.061Z,7.85
2022-11-29T21:25:36.822Z,7.85
2022-11-29T21:28:08.173Z,7.86
